sensor_id;sensor_type;location;lat;lon;timestamp;P1;durP1;ratioP1;P2;durP2;ratioP2
85799;SDS011;76245;47.062;15.440;2024-02-26T00:00:31;8.85;;;4.88;;
85799;SDS011;76245;47.062;15.440;2024-02-26T00:02:57;7.80;;;4.22;;
85799;SDS011;76245;47.062;15.440;2024-02-26T00:05:23;8.55;;;4.18;;
85799;SDS011;76245;47.062;15.440;2024-02-26T00:07:48;7.78;;;4.07;;
85799;SDS011;76245;47.062;15.440;2024-02-26T00:10:15;6.50;;;3.80;;
85799;SDS011;76245;47.062;15.440;2024-02-26T00:12:40;7.45;;;3.70;;
85799;SDS011;76245;47.062;15.440;2024-02-26T00:15:06;6.47;;;3.78;;
85799;SDS011;76245;47.062;15.440;2024-02-26T00:17:33;8.07;;;4.38;;
85799;SDS011;76245;47.062;15.440;2024-02-26T00:19:58;6.40;;;4.15;;
85799;SDS011;76245;47.062;15.440;2024-02-26T00:22:25;8.93;;;4.93;;
85799;SDS011;76245;47.062;15.440;2024-02-26T00:24:51;10.10;;;4.60;;
85799;SDS011;76245;47.062;15.440;2024-02-26T00:27:16;6.65;;;4.13;;
85799;SDS011;76245;47.062;15.440;2024-02-26T00:29:42;7.00;;;4.35;;
85799;SDS011;76245;47.062;15.440;2024-02-26T00:32:07;8.02;;;4.03;;
85799;SDS011;76245;47.062;15.440;2024-02-26T00:34:33;6.32;;;3.38;;
85799;SDS011;76245;47.062;15.440;2024-02-26T00:36:58;5.57;;;3.50;;
85799;SDS011;76245;47.062;15.440;2024-02-26T00:39:24;8.77;;;4.35;;
85799;SDS011;76245;47.062;15.440;2024-02-26T00:41:49;6.88;;;3.80;;
85799;SDS011;76245;47.062;15.440;2024-02-26T00:44:16;6.43;;;3.75;;
85799;SDS011;76245;47.062;15.440;2024-02-26T00:46:42;6.63;;;3.70;;
85799;SDS011;76245;47.062;15.440;2024-02-26T00:49:08;10.02;;;4.43;;
85799;SDS011;76245;47.062;15.440;2024-02-26T00:51:33;8.55;;;4.28;;
85799;SDS011;76245;47.062;15.440;2024-02-26T00:53:59;7.82;;;3.83;;
85799;SDS011;76245;47.062;15.440;2024-02-26T00:56:24;7.95;;;3.63;;
85799;SDS011;76245;47.062;15.440;2024-02-26T00:58:50;5.45;;;2.85;;
85799;SDS011;76245;47.062;15.440;2024-02-26T01:01:16;6.55;;;3.95;;
85799;SDS011;76245;47.062;15.440;2024-02-26T01:03:42;5.40;;;3.17;;
85799;SDS011;76245;47.062;15.440;2024-02-26T01:06:07;6.03;;;3.70;;
85799;SDS011;76245;47.062;15.440;2024-02-26T01:08:34;6.30;;;3.45;;
85799;SDS011;76245;47.062;15.440;2024-02-26T01:11:00;6.43;;;3.45;;
85799;SDS011;76245;47.062;15.440;2024-02-26T01:13:26;6.05;;;3.45;;
85799;SDS011;76245;47.062;15.440;2024-02-26T01:15:51;7.40;;;3.95;;
85799;SDS011;76245;47.062;15.440;2024-02-26T01:18:17;6.32;;;3.15;;
85799;SDS011;76245;47.062;15.440;2024-02-26T01:20:43;7.20;;;4.05;;
85799;SDS011;76245;47.062;15.440;2024-02-26T01:23:09;5.72;;;3.25;;
85799;SDS011;76245;47.062;15.440;2024-02-26T01:25:34;5.50;;;3.03;;
85799;SDS011;76245;47.062;15.440;2024-02-26T01:28:00;4.82;;;3.25;;
85799;SDS011;76245;47.062;15.440;2024-02-26T01:30:25;6.88;;;3.85;;
85799;SDS011;76245;47.062;15.440;2024-02-26T01:32:51;4.90;;;2.70;;
85799;SDS011;76245;47.062;15.440;2024-02-26T01:35:16;5.75;;;3.53;;
85799;SDS011;76245;47.062;15.440;2024-02-26T01:37:42;5.93;;;3.10;;
85799;SDS011;76245;47.062;15.440;2024-02-26T01:40:08;7.53;;;4.20;;
85799;SDS011;76245;47.062;15.440;2024-02-26T01:42:34;10.52;;;4.20;;
85799;SDS011;76245;47.062;15.440;2024-02-26T01:45:00;6.05;;;4.03;;
85799;SDS011;76245;47.062;15.440;2024-02-26T01:47:26;7.07;;;3.40;;
85799;SDS011;76245;47.062;15.440;2024-02-26T01:49:52;5.38;;;3.50;;
85799;SDS011;76245;47.062;15.440;2024-02-26T01:52:18;10.80;;;3.60;;
85799;SDS011;76245;47.062;15.440;2024-02-26T01:54:44;4.55;;;3.25;;
85799;SDS011;76245;47.062;15.440;2024-02-26T01:57:10;7.10;;;4.07;;
85799;SDS011;76245;47.062;15.440;2024-02-26T01:59:37;7.88;;;3.17;;
85799;SDS011;76245;47.062;15.440;2024-02-26T02:02:05;6.65;;;3.60;;
85799;SDS011;76245;47.062;15.440;2024-02-26T02:04:33;6.63;;;3.85;;
85799;SDS011;76245;47.062;15.440;2024-02-26T02:06:59;9.63;;;3.70;;
85799;SDS011;76245;47.062;15.440;2024-02-26T02:09:26;6.85;;;3.67;;
85799;SDS011;76245;47.062;15.440;2024-02-26T02:11:52;7.45;;;4.00;;
85799;SDS011;76245;47.062;15.440;2024-02-26T02:14:18;9.98;;;4.40;;
85799;SDS011;76245;47.062;15.440;2024-02-26T02:16:44;8.18;;;3.38;;
85799;SDS011;76245;47.062;15.440;2024-02-26T02:19:10;7.15;;;3.63;;
85799;SDS011;76245;47.062;15.440;2024-02-26T02:21:35;5.68;;;3.60;;
85799;SDS011;76245;47.062;15.440;2024-02-26T02:24:00;6.53;;;4.03;;
85799;SDS011;76245;47.062;15.440;2024-02-26T02:26:26;5.07;;;3.20;;
85799;SDS011;76245;47.062;15.440;2024-02-26T02:28:53;7.47;;;3.75;;
85799;SDS011;76245;47.062;15.440;2024-02-26T02:31:18;6.35;;;3.97;;
85799;SDS011;76245;47.062;15.440;2024-02-26T02:33:45;5.53;;;3.33;;
85799;SDS011;76245;47.062;15.440;2024-02-26T02:36:10;7.60;;;3.53;;
85799;SDS011;76245;47.062;15.440;2024-02-26T02:38:36;4.35;;;2.67;;
85799;SDS011;76245;47.062;15.440;2024-02-26T02:41:02;8.02;;;3.67;;
85799;SDS011;76245;47.062;15.440;2024-02-26T02:43:28;6.00;;;3.47;;
85799;SDS011;76245;47.062;15.440;2024-02-26T02:45:53;7.68;;;3.20;;
85799;SDS011;76245;47.062;15.440;2024-02-26T02:48:19;7.85;;;3.55;;
85799;SDS011;76245;47.062;15.440;2024-02-26T02:50:44;6.03;;;3.28;;
85799;SDS011;76245;47.062;15.440;2024-02-26T02:53:10;6.50;;;3.15;;
85799;SDS011;76245;47.062;15.440;2024-02-26T02:55:36;5.93;;;3.28;;
85799;SDS011;76245;47.062;15.440;2024-02-26T02:58:01;5.30;;;3.20;;
85799;SDS011;76245;47.062;15.440;2024-02-26T03:00:27;6.15;;;2.70;;
85799;SDS011;76245;47.062;15.440;2024-02-26T03:02:52;5.70;;;3.20;;
85799;SDS011;76245;47.062;15.440;2024-02-26T03:05:18;6.57;;;3.38;;
85799;SDS011;76245;47.062;15.440;2024-02-26T03:07:44;5.72;;;2.95;;
85799;SDS011;76245;47.062;15.440;2024-02-26T03:10:09;4.95;;;3.25;;
85799;SDS011;76245;47.062;15.440;2024-02-26T03:12:35;6.68;;;3.78;;
85799;SDS011;76245;47.062;15.440;2024-02-26T03:15:01;6.10;;;2.53;;
85799;SDS011;76245;47.062;15.440;2024-02-26T03:17:28;6.72;;;2.80;;
85799;SDS011;76245;47.062;15.440;2024-02-26T03:19:54;5.63;;;2.50;;
85799;SDS011;76245;47.062;15.440;2024-02-26T03:22:20;4.45;;;2.60;;
85799;SDS011;76245;47.062;15.440;2024-02-26T03:24:46;7.85;;;3.10;;
85799;SDS011;76245;47.062;15.440;2024-02-26T03:27:11;4.95;;;2.70;;
85799;SDS011;76245;47.062;15.440;2024-02-26T03:29:37;5.07;;;2.92;;
85799;SDS011;76245;47.062;15.440;2024-02-26T03:32:03;4.47;;;2.50;;
85799;SDS011;76245;47.062;15.440;2024-02-26T03:34:29;7.47;;;3.03;;
85799;SDS011;76245;47.062;15.440;2024-02-26T03:36:56;4.82;;;2.20;;
85799;SDS011;76245;47.062;15.440;2024-02-26T03:39:21;4.28;;;2.55;;
85799;SDS011;76245;47.062;15.440;2024-02-26T03:41:47;5.13;;;2.92;;
85799;SDS011;76245;47.062;15.440;2024-02-26T03:44:13;5.65;;;2.83;;
85799;SDS011;76245;47.062;15.440;2024-02-26T03:46:39;6.65;;;3.22;;
85799;SDS011;76245;47.062;15.440;2024-02-26T03:49:04;10.25;;;3.75;;
85799;SDS011;76245;47.062;15.440;2024-02-26T03:51:30;5.00;;;3.03;;
85799;SDS011;76245;47.062;15.440;2024-02-26T03:53:57;9.55;;;3.33;;
85799;SDS011;76245;47.062;15.440;2024-02-26T03:56:23;8.25;;;3.15;;
85799;SDS011;76245;47.062;15.440;2024-02-26T03:58:50;4.50;;;3.15;;
85799;SDS011;76245;47.062;15.440;2024-02-26T04:01:15;7.03;;;3.22;;
85799;SDS011;76245;47.062;15.440;2024-02-26T04:03:41;5.82;;;3.40;;
85799;SDS011;76245;47.062;15.440;2024-02-26T04:06:10;6.90;;;2.80;;
85799;SDS011;76245;47.062;15.440;2024-02-26T04:08:36;6.50;;;3.08;;
85799;SDS011;76245;47.062;15.440;2024-02-26T04:11:03;4.63;;;2.80;;
85799;SDS011;76245;47.062;15.440;2024-02-26T04:13:32;5.10;;;2.92;;
85799;SDS011;76245;47.062;15.440;2024-02-26T04:15:59;6.97;;;3.55;;
85799;SDS011;76245;47.062;15.440;2024-02-26T04:18:26;4.75;;;3.22;;
85799;SDS011;76245;47.062;15.440;2024-02-26T04:20:52;7.35;;;3.00;;
85799;SDS011;76245;47.062;15.440;2024-02-26T04:23:17;6.40;;;3.20;;
85799;SDS011;76245;47.062;15.440;2024-02-26T04:25:43;4.50;;;3.08;;
85799;SDS011;76245;47.062;15.440;2024-02-26T04:28:08;6.90;;;3.28;;
85799;SDS011;76245;47.062;15.440;2024-02-26T04:30:34;6.38;;;3.83;;
85799;SDS011;76245;47.062;15.440;2024-02-26T04:33:00;6.35;;;3.08;;
85799;SDS011;76245;47.062;15.440;2024-02-26T04:35:25;6.38;;;3.83;;
85799;SDS011;76245;47.062;15.440;2024-02-26T04:37:51;5.22;;;3.42;;
85799;SDS011;76245;47.062;15.440;2024-02-26T04:40:16;6.00;;;3.70;;
85799;SDS011;76245;47.062;15.440;2024-02-26T04:42:42;5.70;;;3.40;;
85799;SDS011;76245;47.062;15.440;2024-02-26T04:45:08;5.50;;;3.47;;
85799;SDS011;76245;47.062;15.440;2024-02-26T04:47:33;8.23;;;3.85;;
85799;SDS011;76245;47.062;15.440;2024-02-26T04:49:59;6.20;;;3.78;;
85799;SDS011;76245;47.062;15.440;2024-02-26T04:52:25;4.50;;;2.97;;
85799;SDS011;76245;47.062;15.440;2024-02-26T04:54:51;9.05;;;3.92;;
85799;SDS011;76245;47.062;15.440;2024-02-26T04:57:16;8.63;;;4.07;;
85799;SDS011;76245;47.062;15.440;2024-02-26T04:59:43;8.13;;;3.85;;
85799;SDS011;76245;47.062;15.440;2024-02-26T05:02:11;9.95;;;4.18;;
85799;SDS011;76245;47.062;15.440;2024-02-26T05:04:37;10.90;;;4.25;;
85799;SDS011;76245;47.062;15.440;2024-02-26T05:07:02;7.97;;;4.25;;
85799;SDS011;76245;47.062;15.440;2024-02-26T05:09:29;13.63;;;4.15;;
85799;SDS011;76245;47.062;15.440;2024-02-26T05:11:54;7.53;;;3.63;;
85799;SDS011;76245;47.062;15.440;2024-02-26T05:14:20;7.38;;;4.57;;
85799;SDS011;76245;47.062;15.440;2024-02-26T05:16:46;6.15;;;4.30;;
85799;SDS011;76245;47.062;15.440;2024-02-26T05:19:12;8.90;;;4.35;;
85799;SDS011;76245;47.062;15.440;2024-02-26T05:21:38;5.97;;;3.28;;
85799;SDS011;76245;47.062;15.440;2024-02-26T05:24:05;5.95;;;3.88;;
85799;SDS011;76245;47.062;15.440;2024-02-26T05:26:31;8.10;;;4.05;;
85799;SDS011;76245;47.062;15.440;2024-02-26T05:28:56;6.75;;;3.40;;
85799;SDS011;76245;47.062;15.440;2024-02-26T05:31:25;5.38;;;3.47;;
85799;SDS011;76245;47.062;15.440;2024-02-26T05:33:51;9.60;;;4.47;;
85799;SDS011;76245;47.062;15.440;2024-02-26T05:36:20;7.50;;;4.35;;
85799;SDS011;76245;47.062;15.440;2024-02-26T05:38:47;14.52;;;3.80;;
85799;SDS011;76245;47.062;15.440;2024-02-26T05:41:12;5.70;;;2.80;;
85799;SDS011;76245;47.062;15.440;2024-02-26T05:43:38;8.60;;;3.13;;
85799;SDS011;76245;47.062;15.440;2024-02-26T05:46:04;6.28;;;3.13;;
85799;SDS011;76245;47.062;15.440;2024-02-26T05:48:29;8.90;;;3.67;;
85799;SDS011;76245;47.062;15.440;2024-02-26T05:50:55;5.32;;;3.13;;
85799;SDS011;76245;47.062;15.440;2024-02-26T05:53:21;6.78;;;3.80;;
85799;SDS011;76245;47.062;15.440;2024-02-26T05:55:47;4.72;;;3.20;;
85799;SDS011;76245;47.062;15.440;2024-02-26T05:58:12;5.07;;;3.08;;
85799;SDS011;76245;47.062;15.440;2024-02-26T06:00:39;7.40;;;3.25;;
85799;SDS011;76245;47.062;15.440;2024-02-26T06:03:04;5.90;;;3.22;;
85799;SDS011;76245;47.062;15.440;2024-02-26T06:05:30;7.70;;;3.30;;
85799;SDS011;76245;47.062;15.440;2024-02-26T06:07:55;6.82;;;3.53;;
85799;SDS011;76245;47.062;15.440;2024-02-26T06:10:21;5.88;;;3.03;;
85799;SDS011;76245;47.062;15.440;2024-02-26T06:12:47;5.95;;;3.53;;
85799;SDS011;76245;47.062;15.440;2024-02-26T06:15:12;8.25;;;4.43;;
85799;SDS011;76245;47.062;15.440;2024-02-26T06:17:39;9.40;;;4.50;;
85799;SDS011;76245;47.062;15.440;2024-02-26T06:20:04;7.82;;;4.05;;
85799;SDS011;76245;47.062;15.440;2024-02-26T06:22:31;11.90;;;3.83;;
85799;SDS011;76245;47.062;15.440;2024-02-26T06:24:57;8.35;;;4.10;;
85799;SDS011;76245;47.062;15.440;2024-02-26T06:27:23;6.53;;;3.88;;
85799;SDS011;76245;47.062;15.440;2024-02-26T06:29:49;6.53;;;3.03;;
85799;SDS011;76245;47.062;15.440;2024-02-26T06:32:15;6.93;;;3.60;;
85799;SDS011;76245;47.062;15.440;2024-02-26T06:34:40;7.07;;;3.67;;
85799;SDS011;76245;47.062;15.440;2024-02-26T06:37:07;8.60;;;3.95;;
85799;SDS011;76245;47.062;15.440;2024-02-26T06:39:33;5.45;;;3.50;;
85799;SDS011;76245;47.062;15.440;2024-02-26T06:41:58;8.07;;;4.43;;
85799;SDS011;76245;47.062;15.440;2024-02-26T06:44:27;7.88;;;4.38;;
85799;SDS011;76245;47.062;15.440;2024-02-26T06:46:59;15.65;;;5.18;;
85799;SDS011;76245;47.062;15.440;2024-02-26T06:49:25;9.77;;;4.45;;
85799;SDS011;76245;47.062;15.440;2024-02-26T06:51:51;10.65;;;4.90;;
85799;SDS011;76245;47.062;15.440;2024-02-26T06:54:17;9.07;;;5.15;;
85799;SDS011;76245;47.062;15.440;2024-02-26T06:56:43;9.75;;;4.18;;
85799;SDS011;76245;47.062;15.440;2024-02-26T06:59:08;10.88;;;4.10;;
85799;SDS011;76245;47.062;15.440;2024-02-26T07:01:34;6.38;;;4.25;;
85799;SDS011;76245;47.062;15.440;2024-02-26T07:03:59;9.98;;;4.70;;
85799;SDS011;76245;47.062;15.440;2024-02-26T07:06:26;11.18;;;4.70;;
85799;SDS011;76245;47.062;15.440;2024-02-26T07:08:52;7.85;;;3.78;;
85799;SDS011;76245;47.062;15.440;2024-02-26T07:11:19;9.55;;;4.47;;
85799;SDS011;76245;47.062;15.440;2024-02-26T07:13:45;6.50;;;4.03;;
85799;SDS011;76245;47.062;15.440;2024-02-26T07:16:11;8.88;;;5.53;;
85799;SDS011;76245;47.062;15.440;2024-02-26T07:18:37;8.27;;;4.18;;
85799;SDS011;76245;47.062;15.440;2024-02-26T07:21:04;7.25;;;4.18;;
85799;SDS011;76245;47.062;15.440;2024-02-26T07:23:31;7.25;;;3.85;;
85799;SDS011;76245;47.062;15.440;2024-02-26T07:25:56;8.43;;;4.18;;
85799;SDS011;76245;47.062;15.440;2024-02-26T07:28:22;7.75;;;3.75;;
85799;SDS011;76245;47.062;15.440;2024-02-26T07:30:47;8.25;;;4.47;;
85799;SDS011;76245;47.062;15.440;2024-02-26T07:33:13;7.47;;;3.97;;
85799;SDS011;76245;47.062;15.440;2024-02-26T07:35:39;6.93;;;3.97;;
85799;SDS011;76245;47.062;15.440;2024-02-26T07:38:05;9.35;;;4.03;;
85799;SDS011;76245;47.062;15.440;2024-02-26T07:40:30;8.32;;;3.60;;
85799;SDS011;76245;47.062;15.440;2024-02-26T07:42:57;9.85;;;4.18;;
85799;SDS011;76245;47.062;15.440;2024-02-26T07:45:22;6.43;;;4.22;;
85799;SDS011;76245;47.062;15.440;2024-02-26T07:47:48;7.95;;;4.43;;
85799;SDS011;76245;47.062;15.440;2024-02-26T07:50:14;5.82;;;3.78;;
85799;SDS011;76245;47.062;15.440;2024-02-26T07:52:39;11.48;;;3.70;;
85799;SDS011;76245;47.062;15.440;2024-02-26T07:55:05;7.05;;;4.55;;
85799;SDS011;76245;47.062;15.440;2024-02-26T07:57:35;8.38;;;3.70;;
85799;SDS011;76245;47.062;15.440;2024-02-26T08:00:01;8.73;;;3.95;;
85799;SDS011;76245;47.062;15.440;2024-02-26T08:02:28;11.90;;;4.35;;
85799;SDS011;76245;47.062;15.440;2024-02-26T08:04:53;6.68;;;3.78;;
85799;SDS011;76245;47.062;15.440;2024-02-26T08:07:19;11.80;;;4.13;;
85799;SDS011;76245;47.062;15.440;2024-02-26T08:09:46;6.55;;;3.78;;
85799;SDS011;76245;47.062;15.440;2024-02-26T08:12:12;7.40;;;3.72;;
85799;SDS011;76245;47.062;15.440;2024-02-26T08:14:38;7.57;;;3.63;;
85799;SDS011;76245;47.062;15.440;2024-02-26T08:17:04;6.65;;;3.78;;
85799;SDS011;76245;47.062;15.440;2024-02-26T08:19:29;5.07;;;3.60;;
85799;SDS011;76245;47.062;15.440;2024-02-26T08:21:55;8.43;;;4.03;;
85799;SDS011;76245;47.062;15.440;2024-02-26T08:24:20;8.63;;;4.55;;
85799;SDS011;76245;47.062;15.440;2024-02-26T08:26:46;10.60;;;3.78;;
85799;SDS011;76245;47.062;15.440;2024-02-26T08:29:11;8.90;;;4.90;;
85799;SDS011;76245;47.062;15.440;2024-02-26T08:31:37;10.93;;;4.55;;
85799;SDS011;76245;47.062;15.440;2024-02-26T08:34:05;7.85;;;4.38;;
85799;SDS011;76245;47.062;15.440;2024-02-26T08:36:33;6.68;;;3.80;;
85799;SDS011;76245;47.062;15.440;2024-02-26T08:39:00;7.10;;;3.80;;
85799;SDS011;76245;47.062;15.440;2024-02-26T08:41:25;7.15;;;4.05;;
85799;SDS011;76245;47.062;15.440;2024-02-26T08:43:51;5.22;;;3.15;;
85799;SDS011;76245;47.062;15.440;2024-02-26T08:46:16;6.93;;;3.75;;
85799;SDS011;76245;47.062;15.440;2024-02-26T08:48:42;7.85;;;3.80;;
85799;SDS011;76245;47.062;15.440;2024-02-26T08:51:08;11.60;;;4.32;;
85799;SDS011;76245;47.062;15.440;2024-02-26T08:53:35;9.30;;;3.50;;
85799;SDS011;76245;47.062;15.440;2024-02-26T08:56:00;7.22;;;3.70;;
85799;SDS011;76245;47.062;15.440;2024-02-26T08:58:27;5.63;;;3.50;;
85799;SDS011;76245;47.062;15.440;2024-02-26T09:00:53;6.18;;;3.63;;
85799;SDS011;76245;47.062;15.440;2024-02-26T09:03:18;6.13;;;3.08;;
85799;SDS011;76245;47.062;15.440;2024-02-26T09:05:44;9.00;;;3.08;;
85799;SDS011;76245;47.062;15.440;2024-02-26T09:08:09;10.63;;;3.65;;
85799;SDS011;76245;47.062;15.440;2024-02-26T09:10:35;5.68;;;3.10;;
85799;SDS011;76245;47.062;15.440;2024-02-26T09:13:00;7.63;;;3.33;;
85799;SDS011;76245;47.062;15.440;2024-02-26T09:15:26;8.80;;;3.38;;
85799;SDS011;76245;47.062;15.440;2024-02-26T09:17:51;8.60;;;3.50;;
85799;SDS011;76245;47.062;15.440;2024-02-26T09:20:17;6.07;;;3.15;;
85799;SDS011;76245;47.062;15.440;2024-02-26T09:22:48;10.75;;;3.17;;
85799;SDS011;76245;47.062;15.440;2024-02-26T09:25:14;6.28;;;3.67;;
85799;SDS011;76245;47.062;15.440;2024-02-26T09:27:41;8.48;;;2.70;;
85799;SDS011;76245;47.062;15.440;2024-02-26T09:30:08;7.55;;;3.22;;
85799;SDS011;76245;47.062;15.440;2024-02-26T09:32:37;4.75;;;2.53;;
85799;SDS011;76245;47.062;15.440;2024-02-26T09:35:03;5.55;;;3.35;;
85799;SDS011;76245;47.062;15.440;2024-02-26T09:37:29;5.70;;;3.13;;
85799;SDS011;76245;47.062;15.440;2024-02-26T09:39:54;8.80;;;2.70;;
85799;SDS011;76245;47.062;15.440;2024-02-26T09:42:20;6.95;;;2.83;;
85799;SDS011;76245;47.062;15.440;2024-02-26T09:44:46;4.20;;;2.20;;
85799;SDS011;76245;47.062;15.440;2024-02-26T09:47:12;6.25;;;2.30;;
85799;SDS011;76245;47.062;15.440;2024-02-26T09:49:42;5.78;;;2.70;;
85799;SDS011;76245;47.062;15.440;2024-02-26T09:52:07;6.68;;;2.45;;
85799;SDS011;76245;47.062;15.440;2024-02-26T09:54:34;6.85;;;2.78;;
85799;SDS011;76245;47.062;15.440;2024-02-26T09:57:00;4.30;;;2.42;;
85799;SDS011;76245;47.062;15.440;2024-02-26T09:59:36;8.55;;;2.65;;
85799;SDS011;76245;47.062;15.440;2024-02-26T10:02:06;5.53;;;2.35;;
85799;SDS011;76245;47.062;15.440;2024-02-26T10:04:41;6.20;;;2.08;;
85799;SDS011;76245;47.062;15.440;2024-02-26T10:07:12;5.85;;;2.60;;
85799;SDS011;76245;47.062;15.440;2024-02-26T10:09:38;8.00;;;2.42;;
85799;SDS011;76245;47.062;15.440;2024-02-26T10:12:04;12.25;;;3.65;;
85799;SDS011;76245;47.062;15.440;2024-02-26T10:14:31;7.78;;;2.40;;
85799;SDS011;76245;47.062;15.440;2024-02-26T10:16:56;4.68;;;2.05;;
85799;SDS011;76245;47.062;15.440;2024-02-26T10:19:28;3.70;;;1.88;;
85799;SDS011;76245;47.062;15.440;2024-02-26T10:21:58;4.13;;;2.30;;
85799;SDS011;76245;47.062;15.440;2024-02-26T10:24:24;4.93;;;2.20;;
85799;SDS011;76245;47.062;15.440;2024-02-26T10:26:50;3.35;;;1.75;;
85799;SDS011;76245;47.062;15.440;2024-02-26T10:29:17;3.65;;;1.98;;
85799;SDS011;76245;47.062;15.440;2024-02-26T10:31:44;3.47;;;1.80;;
85799;SDS011;76245;47.062;15.440;2024-02-26T10:34:10;5.68;;;1.73;;
85799;SDS011;76245;47.062;15.440;2024-02-26T10:36:36;2.75;;;1.60;;
85799;SDS011;76245;47.062;15.440;2024-02-26T10:39:05;3.05;;;1.52;;
85799;SDS011;76245;47.062;15.440;2024-02-26T10:41:32;4.13;;;1.80;;
85799;SDS011;76245;47.062;15.440;2024-02-26T10:43:58;3.38;;;1.50;;
85799;SDS011;76245;47.062;15.440;2024-02-26T10:46:25;3.03;;;1.42;;
85799;SDS011;76245;47.062;15.440;2024-02-26T10:48:50;3.85;;;1.58;;
85799;SDS011;76245;47.062;15.440;2024-02-26T10:51:17;3.40;;;1.95;;
85799;SDS011;76245;47.062;15.440;2024-02-26T10:53:46;3.50;;;2.05;;
85799;SDS011;76245;47.062;15.440;2024-02-26T10:56:13;3.67;;;1.10;;
85799;SDS011;76245;47.062;15.440;2024-02-26T10:58:39;2.33;;;1.40;;
85799;SDS011;76245;47.062;15.440;2024-02-26T11:01:06;6.00;;;1.30;;
85799;SDS011;76245;47.062;15.440;2024-02-26T11:03:31;3.22;;;1.48;;
85799;SDS011;76245;47.062;15.440;2024-02-26T11:06:02;2.95;;;1.33;;
85799;SDS011;76245;47.062;15.440;2024-02-26T11:08:29;2.85;;;1.13;;
85799;SDS011;76245;47.062;15.440;2024-02-26T11:10:55;7.20;;;2.05;;
85799;SDS011;76245;47.062;15.440;2024-02-26T11:13:21;2.42;;;1.30;;
85799;SDS011;76245;47.062;15.440;2024-02-26T11:15:47;3.35;;;1.55;;
85799;SDS011;76245;47.062;15.440;2024-02-26T11:18:15;2.95;;;1.58;;
85799;SDS011;76245;47.062;15.440;2024-02-26T11:20:44;4.40;;;1.10;;
85799;SDS011;76245;47.062;15.440;2024-02-26T11:23:10;4.50;;;1.27;;
85799;SDS011;76245;47.062;15.440;2024-02-26T11:25:36;5.95;;;1.40;;
85799;SDS011;76245;47.062;15.440;2024-02-26T11:28:05;2.90;;;1.63;;
85799;SDS011;76245;47.062;15.440;2024-02-26T11:30:33;4.35;;;1.30;;
85799;SDS011;76245;47.062;15.440;2024-02-26T11:33:00;3.15;;;1.00;;
85799;SDS011;76245;47.062;15.440;2024-02-26T11:35:26;2.83;;;1.13;;
85799;SDS011;76245;47.062;15.440;2024-02-26T11:37:55;3.33;;;1.40;;
85799;SDS011;76245;47.062;15.440;2024-02-26T11:40:23;2.42;;;1.20;;
85799;SDS011;76245;47.062;15.440;2024-02-26T11:42:50;3.60;;;1.63;;
85799;SDS011;76245;47.062;15.440;2024-02-26T11:48:16;3.08;;;1.60;;
85799;SDS011;76245;47.062;15.440;2024-02-26T11:50:46;4.32;;;1.50;;
85799;SDS011;76245;47.062;15.440;2024-02-26T11:55:48;2.50;;;1.42;;
85799;SDS011;76245;47.062;15.440;2024-02-26T11:58:35;3.72;;;1.65;;
85799;SDS011;76245;47.062;15.440;2024-02-26T12:01:02;6.00;;;1.65;;
85799;SDS011;76245;47.062;15.440;2024-02-26T12:03:28;5.18;;;2.70;;
85799;SDS011;76245;47.062;15.440;2024-02-26T12:05:54;5.90;;;1.67;;
85799;SDS011;76245;47.062;15.440;2024-02-26T12:08:19;4.10;;;1.52;;
85799;SDS011;76245;47.062;15.440;2024-02-26T12:10:48;2.67;;;1.52;;
85799;SDS011;76245;47.062;15.440;2024-02-26T12:13:14;3.13;;;1.70;;
85799;SDS011;76245;47.062;15.440;2024-02-26T12:18:11;3.05;;;1.50;;
85799;SDS011;76245;47.062;15.440;2024-02-26T12:20:41;4.70;;;1.95;;
85799;SDS011;76245;47.062;15.440;2024-02-26T12:23:06;6.78;;;1.92;;
85799;SDS011;76245;47.062;15.440;2024-02-26T12:25:32;2.90;;;1.50;;
85799;SDS011;76245;47.062;15.440;2024-02-26T12:27:58;2.67;;;1.50;;
85799;SDS011;76245;47.062;15.440;2024-02-26T12:30:25;3.10;;;1.45;;
85799;SDS011;76245;47.062;15.440;2024-02-26T12:32:51;3.38;;;1.27;;
85799;SDS011;76245;47.062;15.440;2024-02-26T12:35:18;5.97;;;1.88;;
85799;SDS011;76245;47.062;15.440;2024-02-26T12:37:44;7.05;;;1.80;;
85799;SDS011;76245;47.062;15.440;2024-02-26T12:40:11;6.03;;;1.83;;
85799;SDS011;76245;47.062;15.440;2024-02-26T12:42:37;4.00;;;1.73;;
85799;SDS011;76245;47.062;15.440;2024-02-26T12:45:07;5.72;;;1.80;;
85799;SDS011;76245;47.062;15.440;2024-02-26T12:47:37;4.07;;;1.77;;
85799;SDS011;76245;47.062;15.440;2024-02-26T12:50:03;2.75;;;1.35;;
85799;SDS011;76245;47.062;15.440;2024-02-26T12:52:33;4.45;;;1.65;;
85799;SDS011;76245;47.062;15.440;2024-02-26T12:54:59;2.40;;;1.40;;
85799;SDS011;76245;47.062;15.440;2024-02-26T12:57:26;4.20;;;1.52;;
85799;SDS011;76245;47.062;15.440;2024-02-26T12:59:54;5.28;;;1.52;;
85799;SDS011;76245;47.062;15.440;2024-02-26T13:02:19;2.85;;;1.17;;
85799;SDS011;76245;47.062;15.440;2024-02-26T13:04:45;4.50;;;1.42;;
85799;SDS011;76245;47.062;15.440;2024-02-26T13:07:10;4.45;;;1.63;;
85799;SDS011;76245;47.062;15.440;2024-02-26T13:09:36;5.57;;;1.67;;
85799;SDS011;76245;47.062;15.440;2024-02-26T13:12:03;2.22;;;1.15;;
85799;SDS011;76245;47.062;15.440;2024-02-26T13:14:31;3.55;;;1.67;;
85799;SDS011;76245;47.062;15.440;2024-02-26T13:16:57;2.45;;;1.15;;
85799;SDS011;76245;47.062;15.440;2024-02-26T13:19:23;2.90;;;1.35;;
85799;SDS011;76245;47.062;15.440;2024-02-26T13:21:49;3.53;;;1.40;;
85799;SDS011;76245;47.062;15.440;2024-02-26T13:24:15;3.22;;;1.48;;
85799;SDS011;76245;47.062;15.440;2024-02-26T13:29:08;2.88;;;1.10;;
85799;SDS011;76245;47.062;15.440;2024-02-26T13:31:40;3.35;;;1.40;;
85799;SDS011;76245;47.062;15.440;2024-02-26T13:34:06;2.00;;;1.13;;
85799;SDS011;76245;47.062;15.440;2024-02-26T13:36:31;2.50;;;1.20;;
85799;SDS011;76245;47.062;15.440;2024-02-26T13:38:56;5.03;;;1.35;;
85799;SDS011;76245;47.062;15.440;2024-02-26T13:41:23;5.47;;;1.52;;
85799;SDS011;76245;47.062;15.440;2024-02-26T13:43:49;3.03;;;1.45;;
85799;SDS011;76245;47.062;15.440;2024-02-26T13:46:15;3.28;;;1.10;;
85799;SDS011;76245;47.062;15.440;2024-02-26T13:48:42;2.33;;;1.38;;
85799;SDS011;76245;47.062;15.440;2024-02-26T13:51:07;4.63;;;2.03;;
85799;SDS011;76245;47.062;15.440;2024-02-26T13:53:33;2.13;;;0.98;;
85799;SDS011;76245;47.062;15.440;2024-02-26T13:55:58;4.13;;;1.08;;
85799;SDS011;76245;47.062;15.440;2024-02-26T13:58:27;1.50;;;0.82;;
85799;SDS011;76245;47.062;15.440;2024-02-26T14:00:53;2.53;;;1.23;;
85799;SDS011;76245;47.062;15.440;2024-02-26T14:03:21;3.40;;;1.20;;
85799;SDS011;76245;47.062;15.440;2024-02-26T14:05:47;1.88;;;0.90;;
85799;SDS011;76245;47.062;15.440;2024-02-26T14:08:13;5.05;;;1.17;;
85799;SDS011;76245;47.062;15.440;2024-02-26T14:10:39;1.60;;;1.00;;
85799;SDS011;76245;47.062;15.440;2024-02-26T14:13:04;4.72;;;1.25;;
85799;SDS011;76245;47.062;15.440;2024-02-26T14:15:30;4.70;;;1.17;;
85799;SDS011;76245;47.062;15.440;2024-02-26T14:17:55;3.10;;;1.00;;
85799;SDS011;76245;47.062;15.440;2024-02-26T14:20:21;5.03;;;1.23;;
85799;SDS011;76245;47.062;15.440;2024-02-26T14:22:51;1.92;;;0.80;;
85799;SDS011;76245;47.062;15.440;2024-02-26T14:25:18;2.05;;;1.02;;
85799;SDS011;76245;47.062;15.440;2024-02-26T14:27:45;1.88;;;0.73;;
85799;SDS011;76245;47.062;15.440;2024-02-26T14:30:11;1.27;;;0.93;;
85799;SDS011;76245;47.062;15.440;2024-02-26T14:32:37;2.47;;;0.85;;
85799;SDS011;76245;47.062;15.440;2024-02-26T14:35:07;1.60;;;0.98;;
85799;SDS011;76245;47.062;15.440;2024-02-26T14:37:34;1.45;;;0.80;;